Time;durP1;ratioP1;P1;durP2;ratioP2;P2;SDS_P1;SDS_P2;PMS_P1;PMS_P2;Temp;Humidity;BMP_temperature;BMP_pressure;BME280_temperature;BME280_humidity;BME280_pressure;Samples;Min_cycle;Max_cycle;Signal;HPM_P1;HPM_P2
2022/01/16 00:05:05;;;;;;;21.42;13.18;;;;;;;;;;5052148;28;20051;-48
2022/01/16 00:07:31;;;;;;;21.10;13.38;;;;;;;;;;5052106;28;20116;-48
2022/01/16 00:09:57;;;;;;;20.75;13.18;;;;;;;;;;5052049;28;20048;-48
2022/01/16 00:12:24;;;;;;;21.35;13.07;;;;;;;;;;5052088;28;20396;-48
2022/01/16 00:14:51;;;;;;;19.92;12.95;;;15.00;92.70;;;;;;5051997;28;20029;-50
2022/01/16 00:17:19;;;;;;;17.52;12.57;;;;;;;;;;5051972;28;20112;-50
2022/01/16 00:19:45;;;;;;;20.98;13.38;;;;;;;;;;5051930;28;20483;-47
2022/01/16 00:22:14;;;;;;;22.10;13.38;;;;;;;;;;5050612;28;20079;-48
2022/01/16 00:24:40;;;;;;;21.63;12.77;;;;;;;;;;5052260;28;20385;-50
2022/01/16 00:27:07;;;;;;;19.77;12.90;;;;;;;;;;5051813;28;20025;-47
2022/01/16 00:29:33;;;;;;;22.77;14.05;;;;;;;;;;5051884;28;20040;-47
2022/01/16 00:31:59;;;;;;;19.17;13.35;;;;;;;;;;5051856;28;20025;-48
2022/01/16 00:34:25;;;;;;;21.30;13.82;;;;;;;;;;5051908;28;20033;-47
2022/01/16 00:36:51;;;;;;;20.83;13.73;;;;;;;;;;5052147;28;20021;-48
2022/01/16 00:39:17;;;;;;;19.88;13.25;;;;;;;;;;5051721;28;20033;-48
2022/01/16 00:41:43;;;;;;;20.05;12.13;;;;;;;;;;5055738;28;20025;-47
2022/01/16 00:44:10;;;;;;;18.90;12.13;;;;;;;;;;5055657;28;20053;-47
2022/01/16 00:46:35;;;;;;;20.10;12.52;;;;;;;;;;5055902;28;20039;-46
2022/01/16 00:49:02;;;;;;;21.92;12.25;;;;;;;;;;5055556;28;20025;-47
2022/01/16 00:51:28;;;;;;;22.92;13.43;;;;;;;;;;5055863;28;20033;-48
2022/01/16 00:53:54;;;;;;;20.48;12.68;;;;;;;;;;5055830;28;20095;-48
2022/01/16 00:56:21;;;;;;;19.85;12.60;;;;;;;;;;5055486;28;20025;-47
2022/01/16 00:58:47;;;;;;;19.17;13.05;;;;;;;;;;5055364;28;20021;-47
2022/01/16 01:01:14;;;;;;;19.80;12.50;;;;;;;;;;5055274;28;20591;-47
2022/01/16 01:03:40;;;;;;;19.90;12.48;;;;;;;;;;5055242;28;20036;-48
2022/01/16 01:06:07;;;;;;;20.90;13.00;;;;;;;;;;5055361;28;20040;-47
2022/01/16 01:08:33;;;;;;;18.73;12.70;;;;;;;;;;5055244;28;20438;-48
2022/01/16 01:11:01;;;;;;;19.15;13.18;;;;;;;;;;5055276;28;20063;-47
2022/01/16 01:13:33;;;;;;;20.08;13.05;;;;;;;;;;5055254;28;20021;-48
2022/01/16 01:16:04;;;;;;;19.58;12.55;;;14.80;92.90;;;;;;5055243;28;20480;-47
2022/01/16 01:18:34;;;;;;;18.40;11.90;;;14.80;90.30;;;;;;5055031;28;20068;-48
2022/01/16 01:21:02;;;;;;;19.58;13.27;;;;;;;;;;5055317;28;20029;-48
2022/01/16 01:23:29;;;;;;;20.83;12.93;;;14.80;91.50;;;;;;5054943;28;20399;-48
2022/01/16 01:25:55;;;;;;;20.05;13.00;;;;;;;;;;5055013;28;20035;-49
2022/01/16 01:28:21;;;;;;;21.20;12.88;;;;;;;;;;5054867;28;20096;-48
2022/01/16 01:30:47;;;;;;;23.17;13.25;;;;;;;;;;5054959;28;20083;-46
2022/01/16 01:33:14;;;;;;;20.27;12.55;;;;;;;;;;5054806;28;20068;-47
2022/01/16 01:35:40;;;;;;;19.50;12.77;;;;;;;;;;5054768;28;20109;-46
2022/01/16 01:38:08;;;;;;;19.00;12.65;;;14.70;93.00;;;;;;5054697;28;20037;-48
2022/01/16 01:40:34;;;;;;;21.02;13.00;;;;;;;;;;5055129;28;20033;-47
2022/01/16 01:51:16;;;;;;;19.38;11.55;;;;;;;;;;5054043;28;20036;-46
2022/01/16 01:53:43;;;;;;;20.50;13.32;;;14.60;92.80;;;;;;5054439;28;20442;-46
2022/01/16 01:56:12;;;;;;;20.83;13.07;;;14.70;92.90;;;;;;5054420;28;20052;-47
2022/01/16 01:58:38;;;;;;;22.13;13.07;;;;;;;;;;5054284;28;20498;-46
2022/01/16 02:01:04;;;;;;;21.23;13.43;;;;;;;;;;5054566;28;20092;-46
2022/01/16 02:03:42;;;;;;;22.25;13.20;;;;;;;;;;5053941;28;20041;-47
2022/01/16 02:06:11;;;;;;;19.05;12.52;;;14.50;93.10;;;;;;5054537;28;20108;-46
2022/01/16 02:08:37;;;;;;;20.27;12.98;;;;;;;;;;5054198;28;20021;-47
2022/01/16 02:11:03;;;;;;;21.25;12.40;;;;;;;;;;5054117;28;20120;-47
2022/01/16 02:13:44;;;;;;;19.60;12.55;;;14.50;93.00;;;;;;5054262;28;20384;-47
2022/01/16 02:30:22;;;;;;;21.80;13.27;;;;;;;;;;5053781;28;20047;-47
2022/01/16 02:34:57;;;;;;;20.48;13.02;;;;;;;;;;5053978;28;20064;-47
2022/01/16 02:37:24;;;;;;;22.88;13.30;;;;;;;;;;5053622;28;20086;-47
2022/01/16 02:39:52;;;;;;;20.02;12.20;;;;;;;;;;5053724;28;20084;-47
2022/01/16 02:42:24;;;;;;;21.33;12.60;;;;;;;;;;5053591;28;20024;-47
2022/01/16 02:45:01;;;;;;;21.48;14.13;;;;;;;;;;5053867;28;20071;-48
2022/01/16 02:47:27;;;;;;;21.10;12.88;;;;;;;;;;5053696;28;20029;-49
2022/01/16 02:49:53;;;;;;;21.00;13.23;;;;;;;;;;5053417;28;20043;-49
2022/01/16 02:52:21;;;;;;;21.58;13.13;;;14.40;92.70;;;;;;5053349;28;20025;-48
2022/01/16 02:54:50;;;;;;;22.17;14.27;;;14.50;92.60;;;;;;5053226;28;20029;-45
2022/01/16 02:57:19;;;;;;;20.33;12.65;;;14.40;92.60;;;;;;5053266;28;20028;-47
2022/01/16 02:59:48;;;;;;;20.92;13.43;;;14.40;92.60;;;;;;5053016;28;20041;-47
2022/01/16 03:02:15;;;;;;;19.77;12.32;;;14.40;91.30;;;;;;5052080;28;20148;-47
2022/01/16 03:04:41;;;;;;;21.27;12.52;;;;;;;;;;5053149;28;20483;-48
2022/01/16 03:07:07;;;;;;;18.88;12.05;;;;;;;;;;5053042;28;20025;-48
2022/01/16 03:12:11;;;;;;;18.77;12.07;;;;;;;;;;5053265;28;20067;-48
2022/01/16 03:14:38;;;;;;;18.02;12.27;;;;;;;;;;5052881;28;20056;-48
2022/01/16 03:17:04;;;;;;;19.25;12.65;;;;;;;;;;5052853;28;20434;-48
2022/01/16 03:22:15;;;;;;;18.63;12.25;;;;;;;;;;5052846;28;20031;-49
2022/01/16 03:24:43;;;;;;;18.45;12.07;;;14.40;92.70;;;;;;5052706;28;20107;-48
2022/01/16 03:27:14;;;;;;;18.02;12.23;;;14.30;92.60;;;;;;5052642;28;20028;-48
2022/01/16 03:29:42;;;;;;;18.45;11.85;;;14.30;92.60;;;;;;5052837;28;20028;-51
2022/01/16 03:32:13;;;;;;;18.10;11.90;;;14.30;92.70;;;;;;5052536;28;20116;-48
2022/01/16 03:34:39;;;;;;;20.98;12.25;;;;;;;;;;5052550;28;20044;-48
2022/01/16 03:37:06;;;;;;;19.20;12.45;;;14.30;91.40;;;;;;5052452;28;20029;-49
2022/01/16 03:39:32;;;;;;;20.42;12.95;;;;;;;;;;5052381;28;20044;-48
2022/01/16 03:42:00;;;;;;;18.48;11.75;;;;;;;;;;5052346;28;20025;-48
2022/01/16 03:44:26;;;;;;;19.67;12.15;;;;;;;;;;5052629;28;20063;-48
2022/01/16 03:46:52;;;;;;;17.42;11.68;;;;;;;;;;5052311;28;20025;-48
2022/01/16 03:49:25;;;;;;;18.73;11.98;;;14.20;92.70;;;;;;5052327;28;20028;-47
2022/01/16 03:51:52;;;;;;;17.58;11.23;;;14.30;92.70;;;;;;5052202;28;20085;-46
2022/01/16 03:54:20;;;;;;;19.13;12.35;;;14.20;92.70;;;;;;5052270;28;20135;-47
2022/01/16 03:56:47;;;;;;;16.08;11.55;;;14.20;91.80;;;;;;5052189;28;20089;-46
2022/01/16 03:59:13;;;;;;;18.08;11.60;;;;;;;;;;5052185;28;20168;-47
2022/01/16 04:01:40;;;;;;;18.20;12.10;;;14.20;91.90;;;;;;5052039;28;20032;-48
2022/01/16 04:04:06;;;;;;;17.48;11.57;;;;;;;;;;5051900;28;20056;-47
2022/01/16 04:06:32;;;;;;;19.20;12.00;;;;;;;;;;5052176;28;20029;-47
2022/01/16 04:08:59;;;;;;;17.40;11.02;;;;;;;;;;5052096;28;20029;-46
2022/01/16 04:11:27;;;;;;;18.08;12.02;;;14.20;92.70;;;;;;5052012;28;20456;-47
2022/01/16 04:14:03;;;;;;;16.10;11.20;;;;;;;;;;5053082;28;20013;-47
2022/01/16 04:16:29;;;;;;;18.58;11.25;;;;;;;;;;5056473;28;20037;-46
2022/01/16 04:18:55;;;;;;;18.10;12.15;;;;;;;;;;5056047;28;20391;-47
2022/01/16 04:21:23;;;;;;;20.15;12.95;;;14.10;92.80;;;;;;5055949;28;20032;-47
2022/01/16 04:23:50;;;;;;;16.20;11.07;;;;;;;;;;5056102;28;20024;-46
2022/01/16 04:26:17;;;;;;;15.98;10.82;;;14.10;91.30;;;;;;5056015;28;20423;-47
2022/01/16 04:28:43;;;;;;;15.55;11.32;;;;;;;;;;5055823;28;20029;-47
2022/01/16 04:31:09;;;;;;;14.75;10.80;;;;;;;;;;5055845;28;20489;-47
2022/01/16 04:33:35;;;;;;;16.02;10.80;;;;;;;;;;5055906;28;20025;-47
2022/01/16 04:36:01;;;;;;;16.35;11.23;;;;;;;;;;5056277;28;20112;-47
2022/01/16 04:38:28;;;;;;;16.83;10.30;;;;;;;;;;5055804;28;20060;-47
2022/01/16 04:43:47;;;;;;;16.42;10.85;;;;;;;;;;5055731;28;20040;-48
2022/01/16 04:46:21;;;;;;;14.23;10.50;;;14.10;90.00;;;;;;5055703;28;20075;-47
2022/01/16 04:48:48;;;;;;;18.50;11.75;;;;;;;;;;5055701;28;20490;-47
2022/01/16 04:51:14;;;;;;;13.68;10.00;;;;;;;;;;5055546;28;20033;-47
2022/01/16 04:53:40;;;;;;;15.25;10.38;;;;;;;;;;5054336;28;20516;-48
2022/01/16 04:56:07;;;;;;;15.65;11.40;;;14.10;91.80;;;;;;5055438;28;20155;-48
2022/01/16 04:58:33;;;;;;;14.98;11.30;;;;;;;;;;5055686;28;20021;-47
2022/01/16 05:00:59;;;;;;;14.02;10.30;;;;;;;;;;5055344;28;20044;-48
2022/01/16 05:03:26;;;;;;;15.93;11.00;;;14.00;92.20;;;;;;5055061;28;20407;-47
2022/01/16 05:05:52;;;;;;;16.20;10.20;;;;;;;;;;5055266;28;20028;-47
2022/01/16 05:08:18;;;;;;;15.10;10.38;;;;;;;;;;5055228;28;20036;-47
2022/01/16 05:10:44;;;;;;;13.05;9.52;;;;;;;;;;5055321;28;20028;-47
2022/01/16 05:18:34;;;;;;;13.82;9.93;;;;;;;;;;5055373;28;20044;-48
2022/01/16 05:21:00;;;;;;;15.20;10.90;;;;;;;;;;5055073;28;20037;-48
2022/01/16 05:23:28;;;;;;;14.05;9.60;;;14.00;93.00;;;;;;5054898;28;20036;-46
2022/01/16 05:25:54;;;;;;;14.25;9.93;;;;;;;;;;5054058;28;20103;-47
2022/01/16 05:28:20;;;;;;;13.55;9.70;;;;;;;;;;5054899;28;20057;-49
2022/01/16 05:30:46;;;;;;;13.95;9.93;;;;;;;;;;5054960;28;20036;-47
2022/01/16 05:33:12;;;;;;;15.05;10.05;;;;;;;;;;5054843;28;20037;-48
2022/01/16 05:35:38;;;;;;;13.73;9.75;;;;;;;;;;5054807;28;20091;-48
2022/01/16 05:38:05;;;;;;;14.52;9.73;;;;;;;;;;5054753;28;20112;-48
2022/01/16 05:40:31;;;;;;;16.90;10.32;;;;;;;;;;5054619;28;20037;-46
2022/01/16 05:42:58;;;;;;;14.15;8.95;;;14.00;92.90;;;;;;5054589;28;20075;-47
2022/01/16 05:45:24;;;;;;;12.15;9.38;;;;;;;;;;5054592;28;20583;-48
2022/01/16 05:47:50;;;;;;;13.25;9.10;;;;;;;;;;5054680;28;20028;-47
2022/01/16 05:50:16;;;;;;;15.30;9.98;;;;;;;;;;5054507;28;20475;-47
2022/01/16 05:52:42;;;;;;;11.93;9.68;;;;;;;;;;5054546;28;20021;-46
2022/01/16 05:55:09;;;;;;;12.68;9.50;;;;;;;;;;5054463;28;20056;-47
2022/01/16 05:57:35;;;;;;;12.73;9.77;;;;;;;;;;5054347;28;20025;-47
2022/01/16 06:00:01;;;;;;;14.05;9.32;;;;;;;;;;5054237;28;20044;-46
2022/01/16 06:02:27;;;;;;;12.88;8.73;;;;;;;;;;5053971;28;20048;-47
2022/01/16 06:04:53;;;;;;;11.60;8.25;;;;;;;;;;5054351;28;20037;-47
2022/01/16 06:07:19;;;;;;;11.77;8.23;;;;;;;;;;5054266;28;20106;-48
2022/01/16 06:09:45;;;;;;;10.63;8.23;;;;;;;;;;5054228;28;20071;-47
2022/01/16 06:12:11;;;;;;;9.60;7.53;;;;;;;;;;5054121;28;20450;-47
2022/01/16 06:14:38;;;;;;;11.55;8.15;;;;;;;;;;5054353;28;20025;-47
2022/01/16 06:17:04;;;;;;;10.10;7.32;;;;;;;;;;5054061;28;20033;-48
2022/01/16 06:19:30;;;;;;;10.65;7.75;;;;;;;;;;5053884;28;20041;-48
2022/01/16 06:21:56;;;;;;;9.35;6.95;;;;;;;;;;5053917;28;20055;-47
2022/01/16 06:24:22;;;;;;;8.40;6.95;;;;;;;;;;5053918;28;20079;-48
2022/01/16 06:26:49;;;;;;;9.43;6.88;;;;;;;;;;5053915;28;20372;-47
2022/01/16 06:29:15;;;;;;;8.05;6.28;;;;;;;;;;5054062;28;20024;-48
2022/01/16 06:31:41;;;;;;;9.40;6.55;;;;;;;;;;5053964;28;20021;-48
2022/01/16 06:34:08;;;;;;;9.10;7.07;;;;;;;;;;5053971;28;20482;-49
2022/01/16 06:36:36;;;;;;;7.22;6.20;;;15.50;92.50;;;;;;5053599;28;20051;-48
2022/01/16 06:39:06;;;;;;;7.53;5.72;;;15.60;88.90;;;;;;5053526;28;20036;-47
2022/01/16 06:41:33;;;;;;;8.48;5.80;;;;;;;;;;5053535;28;20499;-47
2022/01/16 06:43:59;;;;;;;8.75;6.47;;;;;;;;;;5053851;28;20387;-47
2022/01/16 06:46:25;;;;;;;7.18;5.65;;;;;;;;;;5053789;28;20033;-46
2022/01/16 06:48:51;;;;;;;8.95;5.80;;;;;;;;;;5053413;28;20021;-48
2022/01/16 06:51:19;;;;;;;9.38;6.53;;;15.90;92.60;;;;;;5053426;28;20029;-46
2022/01/16 06:53:46;;;;;;;7.95;5.82;;;16.00;92.60;;;;;;5053574;28;20021;-46
2022/01/16 06:56:12;;;;;;;8.30;6.18;;;;;;;;;;5053270;28;20029;-48
2022/01/16 06:58:38;;;;;;;9.05;5.40;;;;;;;;;;5053484;28;20075;-48
2022/01/16 07:01:04;;;;;;;7.45;5.82;;;;;;;;;;5053259;28;20033;-47
2022/01/16 07:03:30;;;;;;;6.97;5.40;;;;;;;;;;5052917;28;20053;-50
2022/01/16 07:05:57;;;;;;;6.65;5.18;;;;;;;;;;5053084;28;20036;-49
2022/01/16 07:08:26;;;;;;;7.03;5.22;;;;;;;;;;5052936;28;20479;-49
2022/01/16 07:10:52;;;;;;;9.73;4.72;;;;;;;;;;5052670;28;20029;-47
2022/01/16 07:13:19;;;;;;;8.57;5.30;;;;;;;;;;5052927;28;20605;-49
2022/01/16 07:15:45;;;;;;;8.05;4.97;;;;;;;;;;5052851;28;20113;-46
2022/01/16 07:18:11;;;;;;;7.53;4.50;;;;;;;;;;5052899;28;20112;-46
2022/01/16 07:20:37;;;;;;;8.63;4.57;;;;;;;;;;5052867;28;20514;-46
2022/01/16 07:23:03;;;;;;;8.10;4.35;;;;;;;;;;5052789;28;20057;-47
2022/01/16 07:25:29;;;;;;;5.45;4.10;;;;;;;;;;5053010;28;20029;-46
2022/01/16 07:27:55;;;;;;;7.60;4.45;;;;;;;;;;5052677;28;20025;-47
2022/01/16 07:30:21;;;;;;;5.78;4.35;;;;;;;;;;5052683;28;20506;-46
2022/01/16 07:32:47;;;;;;;10.20;5.10;;;;;;;;;;5052555;28;20029;-46
2022/01/16 07:35:13;;;;;;;5.35;4.25;;;;;;;;;;5052585;28;20040;-47
2022/01/16 07:37:39;;;;;;;5.22;4.40;;;;;;;;;;5052583;28;20029;-46
2022/01/16 07:40:05;;;;;;;5.35;3.67;;;;;;;;;;5052565;28;20555;-49
2022/01/16 07:42:32;;;;;;;6.93;4.45;;;;;;;;;;5052533;28;20561;-47
2022/01/16 07:44:58;;;;;;;6.13;4.28;;;;;;;;;;5052712;28;20070;-46
2022/01/16 07:47:24;;;;;;;4.97;3.72;;;;;;;;;;5052496;28;20025;-47
2022/01/16 07:49:50;;;;;;;9.20;3.90;;;;;;;;;;5051997;28;20063;-46
2022/01/16 07:52:16;;;;;;;5.30;4.00;;;;;;;;;;5052412;28;20029;-51
2022/01/16 07:54:42;;;;;;;5.25;3.88;;;;;;;;;;5052386;28;20028;-50
2022/01/16 07:57:08;;;;;;;5.50;4.00;;;;;;;;;;5052343;28;20040;-47
2022/01/16 07:59:34;;;;;;;6.15;4.43;;;;;;;;;;5052530;28;20559;-46
2022/01/16 08:02:00;;;;;;;7.03;4.15;;;;;;;;;;5059271;22;20123;-46
2022/01/16 08:04:26;;;;;;;8.85;4.20;;;;;;;;;;5052548;28;20544;-46
2022/01/16 08:06:52;;;;;;;6.20;4.20;;;;;;;;;;5052313;28;20059;-46
2022/01/16 08:09:18;;;;;;;5.93;4.00;;;;;;;;;;5052281;28;20029;-46
2022/01/16 08:11:44;;;;;;;6.05;4.40;;;;;;;;;;5052162;28;20029;-46
2022/01/16 08:14:10;;;;;;;5.28;3.85;;;;;;;;;;5052156;28;20488;-46
2022/01/16 08:16:36;;;;;;;8.23;4.30;;;;;;;;;;5052228;28;20507;-46
2022/01/16 08:19:02;;;;;;;6.28;4.50;;;;;;;;;;5052069;28;20503;-46
2022/01/16 08:21:28;;;;;;;6.40;4.43;;;;;;;;;;5052251;28;20029;-46
2022/01/16 08:23:54;;;;;;;7.28;4.82;;;;;;;;;;5052026;28;20268;-47
2022/01/16 08:26:20;;;;;;;6.88;4.10;;;;;;;;;;5051837;28;20025;-46
2022/01/16 08:28:46;;;;;;;5.72;4.05;;;;;;;;;;5051828;28;20025;-46
2022/01/16 08:31:12;;;;;;;5.55;4.53;;;;;;;;;;5051953;28;20025;-47
2022/01/16 08:33:38;;;;;;;5.93;4.10;;;;;;;;;;5052040;28;20028;-46
2022/01/16 08:36:04;;;;;;;7.45;5.28;;;;;;;;;;5051631;28;20059;-46
2022/01/16 08:38:32;;;;;;;7.28;4.32;;;;;;;;;;5050261;28;20499;-47
2022/01/16 08:40:58;;;;;;;7.50;4.35;;;;;;;;;;5051463;28;20423;-47
2022/01/16 08:43:24;;;;;;;5.60;3.97;;;;;;;;;;5051843;28;20029;-46
2022/01/16 08:45:50;;;;;;;5.93;4.13;;;;;;;;;;5051823;28;20036;-47
2022/01/16 08:48:16;;;;;;;6.47;4.70;;;;;;;;;;5051829;28;20025;-46
2022/01/16 08:50:42;;;;;;;6.68;4.50;;;;;;;;;;5052086;28;20028;-46
2022/01/16 08:53:09;;;;;;;6.28;4.32;;;;;;;;;;5051805;28;20083;-46
2022/01/16 08:55:35;;;;;;;7.45;4.68;;;16.10;91.00;;;;;;5051675;28;20044;-47
2022/01/16 08:58:02;;;;;;;8.20;4.70;;;16.10;89.90;;;;;;5051714;28;20024;-46
2022/01/16 09:00:28;;;;;;;6.60;5.03;;;;;;;;;;5052107;28;20395;-47
2022/01/16 09:02:54;;;;;;;7.70;5.32;;;;;;;;;;5055188;28;20045;-47
2022/01/16 09:05:20;;;;;;;10.73;5.57;;;;;;;;;;5055384;28;20131;-47
2022/01/16 09:07:46;;;;;;;7.97;5.40;;;;;;;;;;5055289;28;20021;-45
2022/01/16 09:10:12;;;;;;;10.43;6.22;;;;;;;;;;5055317;28;20491;-47
2022/01/16 09:12:38;;;;;;;12.55;5.97;;;;;;;;;;5055253;28;20103;-49
2022/01/16 09:15:09;;;;;;;13.25;6.68;;;16.40;85.50;;;;;;5055249;28;20545;-47
2022/01/16 09:17:35;;;;;;;10.32;6.68;;;;;;;;;;5055089;28;20107;-47
2022/01/16 09:20:01;;;;;;;10.13;6.75;;;;;;;;;;5055275;28;20037;-47
2022/01/16 09:22:27;;;;;;;12.00;7.35;;;;;;;;;;5054893;28;20032;-48
2022/01/16 09:24:53;;;;;;;15.98;8.00;;;;;;;;;;5054905;28;20039;-47
2022/01/16 09:27:19;;;;;;;13.73;8.43;;;;;;;;;;5054951;28;20104;-47
2022/01/16 09:29:46;;;;;;;14.93;8.13;;;;;;;;;;5054848;28;20029;-48
2022/01/16 09:32:16;;;;;;;14.05;8.25;;;;;;;;;;5054813;28;20066;-49
2022/01/16 09:34:42;;;;;;;;;;;16.80;90.50;;;;;;5055464;28;20100;-50
2022/01/16 09:37:09;;;;;;;16.88;9.68;;;16.80;90.00;;;;;;5054765;28;20360;-49
2022/01/16 09:39:39;;;;;;;21.65;10.73;;;16.90;84.30;;;;;;5054855;28;20025;-49
2022/01/16 09:42:07;;;;;;;17.92;10.38;;;16.90;90.30;;;;;;5054652;28;20054;-48
2022/01/16 09:44:36;;;;;;;17.95;9.02;;;16.90;90.20;;;;;;5054494;28;20032;-48
2022/01/16 09:47:02;;;;;;;19.90;10.63;;;;;;;;;;5054489;28;20032;-47
2022/01/16 09:49:28;;;;;;;21.52;10.82;;;;;;;;;;5054502;28;20033;-47
2022/01/16 09:51:54;;;;;;;18.77;11.05;;;;;;;;;;5054334;28;20051;-47
2022/01/16 09:54:21;;;;;;;19.25;10.07;;;16.90;89.40;;;;;;5054324;28;20032;-48
2022/01/16 09:56:48;;;;;;;19.05;10.57;;;;;;;;;;5054324;28;20017;-47
2022/01/16 09:59:14;;;;;;;19.77;11.20;;;;;;;;;;5054350;28;20033;-47
2022/01/16 10:01:40;;;;;;;19.85;11.32;;;;;;;;;;5054121;28;20057;-47
2022/01/16 10:04:40;;;;;;;20.55;12.05;;;16.80;89.30;;;;;;5054303;28;20024;-47
2022/01/16 10:07:08;;;;;;;26.33;12.05;;;16.80;89.20;;;;;;5054328;28;20110;-48
2022/01/16 10:09:36;;;;;;;23.13;11.93;;;16.90;89.20;;;;;;5054293;28;20029;-47
2022/01/16 10:12:05;;;;;;;25.60;13.18;;;;;;;;;;5053934;28;20056;-47
2022/01/16 10:14:34;;;;;;;22.52;12.80;;;16.90;86.40;;;;;;5054199;28;20028;-48
2022/01/16 10:17:11;;;;;;;26.75;13.20;;;16.90;89.10;;;;;;5054174;28;20036;-47
2022/01/16 10:19:37;;;;;;;23.65;13.20;;;;;;;;;;5053993;28;20124;-47
2022/01/16 10:22:09;;;;;;;22.95;12.88;;;17.00;89.00;;;;;;5053963;28;20029;-48
2022/01/16 10:24:38;;;;;;;23.20;13.65;;;16.90;88.60;;;;;;5053986;28;20033;-46
2022/01/16 10:27:07;;;;;;;24.23;13.43;;;16.90;82.50;;;;;;5052985;28;20041;-47
2022/01/16 10:29:42;;;;;;;26.20;12.27;;;16.90;88.40;;;;;;5053810;28;20028;-48
2022/01/16 10:32:19;;;;;;;24.40;13.85;;;17.00;82.20;;;;;;5053695;28;20395;-47
2022/01/16 10:34:47;;;;;;;23.42;14.00;;;17.00;88.60;;;;;;5053766;28;20108;-46
2022/01/16 10:37:26;;;;;;;28.63;14.57;;;17.00;82.20;;;;;;5052360;28;20017;-47
2022/01/16 10:39:53;;;;;;;26.85;13.90;;;;;;;;;;5053436;28;20098;-48
2022/01/16 10:42:20;;;;;;;27.90;14.38;;;;;;;;;;5054033;28;20021;-48
2022/01/16 10:44:46;;;;;;;24.77;13.50;;;;;;;;;;5053578;28;20060;-46
2022/01/16 10:47:33;;;;;;;27.27;13.73;;;17.10;82.00;;;;;;5053458;28;20361;-48
2022/01/16 10:50:10;;;;;;;28.42;14.35;;;17.00;82.00;;;;;;5053382;28;20036;-47
2022/01/16 10:52:53;;;;;;;26.60;14.93;;;16.90;82.10;;;;;;5053409;28;20074;-48
2022/01/16 10:55:38;;;;;;;26.00;14.13;;;17.00;88.40;;;;;;5053590;28;20033;-47
2022/01/16 10:58:18;;;;;;;27.13;14.15;;;17.10;88.70;;;;;;5053555;28;20383;-47
2022/01/16 11:00:52;;;;;;;28.15;14.18;;;17.00;88.60;;;;;;5053202;28;20120;-47
2022/01/16 11:03:18;;;;;;;29.33;14.23;;;;;;;;;;5052981;28;20064;-47
2022/01/16 11:05:45;;;;;;;24.58;12.93;;;17.00;86.50;;;;;;5053152;28;20037;-48
2022/01/16 11:08:19;;;;;;;22.45;13.38;;;17.10;88.00;;;;;;5053119;28;20353;-47
2022/01/16 11:10:47;;;;;;;22.92;12.35;;;17.20;88.40;;;;;;5053051;28;20029;-47
2022/01/16 11:13:18;;;;;;;22.90;12.13;;;17.10;88.50;;;;;;5052916;28;20025;-47
2022/01/16 11:15:49;;;;;;;22.45;12.73;;;17.20;88.50;;;;;;5052895;28;20029;-49
2022/01/16 11:18:15;;;;;;;19.42;11.95;;;;;;;;;;5053028;28;20037;-48
2022/01/16 11:20:45;;;;;;;21.15;12.57;;;17.30;88.60;;;;;;5052844;28;20502;-48
2022/01/16 11:25:39;;;;;;;21.38;12.60;;;;;;;;;;5052707;28;20150;-47
2022/01/16 11:28:05;;;;;;;21.52;12.40;;;;;;;;;;5052895;28;20032;-48
2022/01/16 11:30:42;;;;;;;23.02;12.07;;;17.40;88.80;;;;;;5052627;28;20029;-47
2022/01/16 11:33:08;;;;;;;19.75;11.32;;;;;;;;;;5052608;28;20090;-50
2022/01/16 11:35:41;;;;;;;19.02;11.23;;;17.60;86.20;;;;;;5052516;28;20052;-48
2022/01/16 11:38:07;;;;;;;19.10;11.48;;;;;;;;;;5052579;28;20095;-47
2022/01/16 11:40:47;;;;;;;17.75;11.07;;;17.80;82.60;;;;;;5052425;28;20033;-49
2022/01/16 11:43:19;;;;;;;14.85;9.35;;;17.80;82.20;;;;;;5052757;28;20021;-48
2022/01/16 11:46:05;;;;;;;19.35;10.55;;;17.80;82.00;;;;;;5052357;28;20029;-47
2022/01/16 11:48:59;;;;;;;15.57;10.07;;;17.80;82.10;;;;;;5052527;28;20036;-47
2022/01/16 11:53:59;;;;;;;17.58;10.90;;;;;;;;;;5052269;28;20388;-48
2022/01/16 11:56:40;;;;;;;16.08;8.77;;;18.00;82.00;;;;;;5052271;28;20029;-47
2022/01/16 11:59:11;;;;;;;16.92;10.65;;;18.00;82.00;;;;;;5052147;28;20487;-47
2022/01/16 12:01:55;;;;;;;16.65;9.68;;;18.00;82.00;;;;;;5051872;28;20049;-47
2022/01/16 12:04:30;;;;;;;15.50;9.93;;;18.00;82.00;;;;;;5052019;28;20029;-47
2022/01/16 12:07:19;;;;;;;16.45;10.00;;;18.00;86.30;;;;;;5052006;28;20067;-47
2022/01/16 12:12:16;;;;;;;14.45;9.05;;;18.10;81.90;;;;;;5052256;28;20115;-47
2022/01/16 12:15:06;;;;;;;13.88;9.05;;;18.10;81.90;;;;;;5052023;28;20033;-49
2022/01/16 12:17:32;;;;;;;14.63;9.00;;;;;;;;;;5052136;28;20021;-47
2022/01/16 12:19:58;;;;;;;14.98;9.55;;;;;;;;;;5052271;28;20037;-47
2022/01/16 12:22:44;;;;;;;13.32;8.90;;;18.10;81.40;;;;;;5051969;28;20029;-47
2022/01/16 12:25:21;;;;;;;12.80;8.38;;;18.10;81.60;;;;;;5052002;28;20553;-48
2022/01/16 12:27:52;;;;;;;11.60;8.30;;;18.10;81.70;;;;;;5052013;28;20036;-47
2022/01/16 12:30:41;;;;;;;14.00;8.55;;;18.00;81.80;;;;;;5051858;28;20052;-47
2022/01/16 12:33:16;;;;;;;13.95;8.75;;;18.10;82.30;;;;;;5052231;28;20025;-47
2022/01/16 12:35:48;;;;;;;11.40;7.43;;;;;;;;;;5054431;28;20021;-48
2022/01/16 12:38:26;;;;;;;14.07;8.85;;;18.10;82.30;;;;;;5056204;28;20025;-48
2022/01/16 12:41:10;;;;;;;15.20;8.13;;;18.10;82.50;;;;;;5055898;28;20441;-48
2022/01/16 12:43:44;;;;;;;10.73;7.35;;;18.10;88.50;;;;;;5055723;28;20037;-47
2022/01/16 12:46:13;;;;;;;11.43;7.82;;;18.10;88.30;;;;;;5056118;28;20039;-47
2022/01/16 12:48:41;;;;;;;11.27;7.70;;;18.00;88.20;;;;;;5055719;28;20017;-46
2022/01/16 12:51:07;;;;;;;13.55;8.18;;;;;;;;;;5055890;28;20024;-48
2022/01/16 12:53:46;;;;;;;13.43;7.60;;;18.10;82.30;;;;;;5055695;28;20029;-47
2022/01/16 12:56:16;;;;;;;10.65;7.03;;;18.20;82.30;;;;;;5055599;28;20017;-48
2022/01/16 12:58:42;;;;;;;10.40;7.15;;;;;;;;;;5055275;28;20502;-47
2022/01/16 13:01:08;;;;;;;10.85;7.05;;;;;;;;;;5055456;28;20041;-47
2022/01/16 13:03:35;;;;;;;14.23;7.70;;;18.20;88.20;;;;;;5055295;28;20067;-48
2022/01/16 13:06:27;;;;;;;10.38;6.68;;;18.30;82.00;;;;;;5055413;28;20028;-48
2022/01/16 13:09:08;;;;;;;9.20;6.43;;;18.30;82.00;;;;;;5055747;28;20025;-47
2022/01/16 13:11:39;;;;;;;10.80;6.68;;;18.30;81.90;;;;;;5055286;28;20029;-49
2022/01/16 13:14:08;;;;;;;9.57;6.45;;;18.40;88.10;;;;;;5055323;28;20136;-48
2022/01/16 13:16:37;;;;;;;10.07;6.70;;;18.40;88.50;;;;;;5054873;28;20059;-49
2022/01/16 13:19:03;;;;;;;8.35;6.40;;;;;;;;;;5054825;28;20423;-50
2022/01/16 13:21:42;;;;;;;10.88;7.78;;;18.50;88.60;;;;;;5054953;28;20059;-48
2022/01/16 13:24:08;;;;;;;9.98;7.13;;;;;;;;;;5055179;28;20025;-47
2022/01/16 13:26:34;;;;;;;10.52;6.65;;;;;;;;;;5054684;28;20510;-46
2022/01/16 13:29:05;;;;;;;9.05;6.47;;;18.50;82.60;;;;;;5055243;28;20025;-48
2022/01/16 13:31:31;;;;;;;10.40;6.78;;;;;;;;;;5055006;28;20479;-48
2022/01/16 13:34:35;;;;;;;10.25;6.43;;;18.50;82.10;;;;;;5054974;28;20052;-48
2022/01/16 13:37:01;;;;;;;9.45;6.03;;;18.50;86.80;;;;;;4993109;28;20105;-47
2022/01/16 13:39:36;;;;;;;8.82;6.63;;;18.40;81.70;;;;;;5043408;28;20468;-48
2022/01/16 13:42:26;;;;;;;9.85;7.00;;;18.40;82.20;;;;;;5054618;28;20044;-48
2022/01/16 13:44:52;;;;;;;;;;;18.40;89.00;;;;;;5054942;28;20025;-48
2022/01/16 13:47:22;;;;;;;7.45;5.75;;;18.30;88.50;;;;;;5054036;28;19904;-48
2022/01/16 13:49:52;;;;;;;8.48;6.18;;;18.30;88.70;;;;;;5054453;28;20021;-48
2022/01/16 13:52:25;;;;;;;;;;;18.20;89.10;;;;;;5054635;28;20040;-46
2022/01/16 13:55:09;;;;;;;10.25;6.75;;;18.30;82.60;;;;;;5054452;28;19905;-46
2022/01/16 13:57:35;;;;;;;10.40;6.35;;;;;;;;;;5054318;28;20056;-46
2022/01/16 14:00:05;;;;;;;9.40;6.63;;;18.20;88.90;;;;;;5054511;28;20365;-46
2022/01/16 14:02:32;;;;;;;10.90;6.95;;;;;;;;;;5053908;28;20117;-47
2022/01/16 14:04:58;;;;;;;9.93;6.97;;;;;;;;;;5053892;28;20508;-46
2022/01/16 14:07:23;;;;;;;9.18;6.45;;;;;;;;;;5053922;28;20029;-46
2022/01/16 14:09:55;;;;;;;10.88;6.70;;;;;;;;;;5053872;28;20099;-47
2022/01/16 14:12:21;;;;;;;9.43;6.85;;;;;;;;;;5054071;28;20028;-46
2022/01/16 14:14:49;;;;;;;8.38;6.32;;;;;;;;;;5053774;28;20027;-48
2022/01/16 14:22:19;;;;;;;11.25;7.28;;;18.00;89.10;;;;;;5053980;28;20059;-47
2022/01/16 14:24:51;;;;;;;11.48;7.15;;;18.00;83.00;;;;;;5053731;28;20112;-47
2022/01/16 14:27:18;;;;;;;10.65;7.43;;;;;;;;;;5053772;28;20025;-48
2022/01/16 14:29:46;;;;;;;14.20;6.90;;;18.00;86.10;;;;;;5053464;28;20025;-48
2022/01/16 14:32:12;;;;;;;10.20;6.82;;;;;;;;;;5053474;28;20060;-48
2022/01/16 14:34:39;;;;;;;11.77;7.10;;;18.10;88.00;;;;;;5053444;28;20448;-50
2022/01/16 14:37:07;;;;;;;13.55;7.65;;;18.10;88.20;;;;;;5053311;28;20545;-47
2022/01/16 14:39:34;;;;;;;11.25;7.32;;;;;;;;;;5053371;28;20503;-49
2022/01/16 14:42:00;;;;;;;9.75;7.00;;;18.10;85.80;;;;;;5053451;28;20041;-47
2022/01/16 14:44:30;;;;;;;11.88;7.35;;;18.00;89.20;;;;;;5053638;28;20021;-47
2022/01/16 14:46:58;;;;;;;11.38;6.95;;;18.00;89.20;;;;;;5053548;28;20391;-48